Terminal Aerodrome Forecast
Issued by NWS Spokane, WA

Home | Current Version | Previous Version | Text Only | Print | Product List | Glossary On
Versions: 1 2 3 4 5 6 7 8 9 10 11 12 13 14 15 16 17 18 19 20 21 22 23 24 25 26 27 28 29 30 31 32 33 34 35 36 37 38 39
885
FTUS46 KOTX 102320
TAFEAT
TAF
KEAT 102320Z 1100/1124 13002KT 3SM -SN BKN005 OVC010
     FM110300 11002KT 4SM -SHSN BKN008 OVC012
     FM111200 31003KT 5SM BR BKN005 OVC020
     FM112000 14002KT 6SM BR VCSH OVC007=

USA.gov is the U.S. government's official web portal to all federal, state and local government web resources and services.